createdAt,value
2019-01-21T00:00:48.755Z,-2.40
2019-01-21T00:03:21.065Z,-2.50
2019-01-21T00:05:50.033Z,-2.60
2019-01-21T00:08:26.149Z,-2.70
2019-01-21T00:10:57.144Z,-2.70
2019-01-21T00:13:25.204Z,-2.70
2019-01-21T00:15:53.377Z,-2.70
2019-01-21T00:18:21.780Z,-2.70
2019-01-21T00:20:49.985Z,-2.70
2019-01-21T00:23:18.189Z,-2.60
2019-01-21T00:25:46.329Z,-2.60
2019-01-21T00:28:14.514Z,-2.60
2019-01-21T00:30:42.635Z,-2.60
2019-01-21T00:33:10.850Z,-2.60
2019-01-21T00:35:39.066Z,-2.60
2019-01-21T00:38:07.235Z,-2.60
2019-01-21T00:40:35.516Z,-2.70
2019-01-21T00:43:03.823Z,-2.70
2019-01-21T00:45:32.943Z,-2.80
2019-01-21T00:48:02.323Z,-2.80
2019-01-21T00:50:30.418Z,-2.90
2019-01-21T00:52:58.567Z,-2.80
2019-01-21T00:55:26.727Z,-2.80
2019-01-21T00:57:54.799Z,-2.70
2019-01-21T01:00:25.239Z,-2.70
2019-01-21T01:02:53.489Z,-2.80
2019-01-21T01:05:22.448Z,-2.90
2019-01-21T01:07:50.577Z,-3.00
2019-01-21T01:10:18.845Z,-2.90
2019-01-21T01:12:47.100Z,-2.80
2019-01-21T01:15:16.200Z,-2.90
2019-01-21T01:17:44.396Z,-3.00
2019-01-21T01:20:18.914Z,-3.00
2019-01-21T01:22:47.196Z,-3.00
2019-01-21T01:25:15.261Z,-3.00
2019-01-21T01:27:43.542Z,-3.00
2019-01-21T01:30:15.656Z,-2.90
2019-01-21T01:32:43.954Z,-2.80
2019-01-21T01:35:14.393Z,-2.80
2019-01-21T01:37:42.933Z,-2.80
2019-01-21T01:40:15.165Z,-2.80
2019-01-21T01:42:43.429Z,-2.90
2019-01-21T01:45:16.640Z,-2.90
2019-01-21T01:47:45.146Z,-2.90
2019-01-21T01:50:13.945Z,-2.90
2019-01-21T01:52:42.019Z,-2.90
2019-01-21T01:55:10.395Z,-2.90
2019-01-21T01:57:38.735Z,-2.80
2019-01-21T02:00:11.311Z,-2.80
2019-01-21T02:02:39.383Z,-2.80
2019-01-21T02:05:07.883Z,-2.80
2019-01-21T02:07:36.206Z,-2.90
2019-01-21T02:10:06.551Z,-3.00
2019-01-21T02:12:34.988Z,-2.90
2019-01-21T02:15:06.902Z,-2.80
2019-01-21T02:17:35.034Z,-2.70
2019-01-21T02:20:05.055Z,-2.70
2019-01-21T02:22:34.574Z,-2.70
2019-01-21T02:25:03.853Z,-2.70
2019-01-21T02:28:12.330Z,-2.70
2019-01-21T02:31:22.881Z,-2.80
2019-01-21T02:35:10.093Z,-2.80
2019-01-21T02:38:27.796Z,-2.80
2019-01-21T02:41:42.159Z,-2.80
2019-01-21T02:45:01.827Z,-2.90
2019-01-21T02:48:00.210Z,-2.90
2019-01-21T02:51:30.727Z,-2.90
2019-01-21T02:54:21.874Z,-2.90
2019-01-21T02:57:25.128Z,-3.00
2019-01-21T03:00:22.348Z,-3.00
2019-01-21T03:03:34.809Z,-3.00
2019-01-21T03:06:52.143Z,-3.00
2019-01-21T03:10:01.615Z,-3.00
2019-01-21T03:13:28.674Z,-3.10
2019-01-21T03:17:07.044Z,-3.10
2019-01-21T03:20:04.130Z,-3.30
2019-01-21T03:23:48.065Z,-3.20
2019-01-21T03:27:27.216Z,-3.20
2019-01-21T03:31:13.600Z,-3.10
2019-01-21T03:34:16.074Z,-3.20
2019-01-21T03:37:44.460Z,-3.30
2019-01-21T03:41:01.326Z,-3.30
2019-01-21T03:44:21.190Z,-3.40
2019-01-21T03:47:58.710Z,-3.40
2019-01-21T03:51:20.966Z,-3.50
2019-01-21T03:54:25.812Z,-3.60
2019-01-21T03:57:50.174Z,-3.50
2019-01-21T04:00:43.490Z,-3.60
2019-01-21T04:04:05.706Z,-3.60
2019-01-21T04:07:03.948Z,-3.60
2019-01-21T04:10:19.764Z,-3.50
2019-01-21T04:13:45.734Z,-3.40
2019-01-21T04:16:55.847Z,-3.40
2019-01-21T04:20:14.435Z,-3.40
2019-01-21T04:24:10.549Z,-3.40
2019-01-21T04:27:33.102Z,-3.40
2019-01-21T04:31:11.725Z,-3.50
2019-01-21T04:34:21.714Z,-3.60
2019-01-21T04:37:44.841Z,-3.70
2019-01-21T04:41:19.424Z,-3.70
2019-01-21T04:44:45.886Z,-3.70
2019-01-21T04:48:05.533Z,-3.80
2019-01-21T04:51:39.020Z,-3.90
2019-01-21T04:55:05.737Z,-3.80
2019-01-21T04:58:26.971Z,-3.80
2019-01-21T05:01:34.377Z,-3.70
2019-01-21T05:04:57.594Z,-3.80
2019-01-21T05:08:21.885Z,-3.70
2019-01-21T05:11:44.201Z,-3.70
2019-01-21T05:14:55.946Z,-3.70
2019-01-21T05:18:14.326Z,-3.70
2019-01-21T05:21:36.017Z,-3.80
2019-01-21T05:24:35.616Z,-3.80
2019-01-21T05:27:43.557Z,-3.70
2019-01-21T05:30:57.064Z,-3.80
2019-01-21T05:34:31.030Z,-3.70
2019-01-21T05:37:43.012Z,-3.80
2019-01-21T05:41:11.639Z,-3.80
2019-01-21T05:44:50.833Z,-3.90
2019-01-21T05:48:02.641Z,-3.80
2019-01-21T05:51:40.881Z,-3.80
2019-01-21T05:55:03.913Z,-3.80
2019-01-21T05:58:26.529Z,-3.80
2019-01-21T06:01:48.657Z,-3.70
2019-01-21T06:05:19.828Z,-3.70
2019-01-21T06:08:45.349Z,-3.70
2019-01-21T06:11:41.093Z,-3.70
2019-01-21T06:14:55.138Z,-3.70
2019-01-21T06:18:31.684Z,-3.70
2019-01-21T06:22:08.259Z,-3.70
2019-01-21T06:25:31.532Z,-3.70
2019-01-21T06:28:51.776Z,-3.70
2019-01-21T06:32:07.593Z,-3.70
2019-01-21T06:35:35.209Z,-3.90
2019-01-21T06:39:17.675Z,-3.80
2019-01-21T06:42:23.107Z,-3.80
2019-01-21T06:45:29.757Z,-3.80
2019-01-21T06:49:09.846Z,-3.80
2019-01-21T06:53:18.611Z,-3.80
2019-01-21T06:56:33.013Z,-3.90
2019-01-21T06:59:41.812Z,-3.90
2019-01-21T07:03:06.215Z,-3.90
2019-01-21T07:06:43.216Z,-4.00
2019-01-21T07:10:02.762Z,-4.20
2019-01-21T07:13:17.970Z,-4.30
2019-01-21T07:16:40.983Z,-4.30
2019-01-21T07:19:34.656Z,-4.20
2019-01-21T07:22:32.592Z,-4.10
2019-01-21T07:25:52.417Z,-4.10
2019-01-21T07:29:29.735Z,-4.10
2019-01-21T07:32:39.296Z,-4.10
2019-01-21T07:35:59.938Z,-4.20
2019-01-21T07:39:06.174Z,-4.30
2019-01-21T07:42:17.721Z,-4.40
2019-01-21T07:45:41.568Z,-4.30
2019-01-21T07:48:25.442Z,-4.30
2019-01-21T07:52:07.543Z,-4.30
2019-01-21T07:55:03.897Z,-4.30
2019-01-21T07:58:48.880Z,-4.20
2019-01-21T08:01:57.271Z,-4.10
2019-01-21T08:05:19.207Z,-3.90
2019-01-21T08:08:03.351Z,-3.90
2019-01-21T08:11:40.460Z,-3.70
2019-01-21T08:14:46.980Z,-3.60
2019-01-21T08:18:10.567Z,-3.50
2019-01-21T08:21:35.980Z,-3.40
2019-01-21T08:24:49.690Z,-3.50
2019-01-21T08:28:09.242Z,-3.60
2019-01-21T08:31:24.228Z,-3.50
2019-01-21T08:34:49.617Z,-3.50
2019-01-21T08:38:34.452Z,-3.60
2019-01-21T08:41:56.068Z,-3.60
2019-01-21T08:44:53.494Z,-3.60
2019-01-21T08:48:05.685Z,-3.50
2019-01-21T08:51:34.021Z,-3.40
2019-01-21T08:54:40.030Z,-3.30
2019-01-21T08:58:25.979Z,-3.30
2019-01-21T09:01:36.230Z,-3.30
2019-01-21T09:04:44.757Z,-3.40
2019-01-21T09:08:08.756Z,-3.30
2019-01-21T09:11:44.162Z,-3.10
2019-01-21T09:15:28.500Z,-3.00
2019-01-21T09:18:49.701Z,-2.90
2019-01-21T09:22:14.953Z,-2.90
2019-01-21T09:25:17.804Z,-2.80
2019-01-21T09:28:29.416Z,-2.80
2019-01-21T09:31:35.561Z,-2.70
2019-01-21T09:34:53.894Z,-2.60
2019-01-21T09:38:23.350Z,-2.60
2019-01-21T09:41:40.572Z,-2.50
2019-01-21T09:44:28.783Z,-2.40
2019-01-21T09:46:55.222Z,-2.40
2019-01-21T09:49:21.889Z,-2.30
2019-01-21T09:51:58.369Z,-2.30
2019-01-21T09:54:28.629Z,-2.30
2019-01-21T09:57:00.310Z,-2.30
2019-01-21T09:59:32.131Z,-2.30
2019-01-21T10:02:02.602Z,-2.30
2019-01-21T10:04:42.905Z,-2.20
2019-01-21T10:07:31.959Z,-2.20
2019-01-21T10:10:23.566Z,-2.00
2019-01-21T10:13:56.893Z,-1.90
2019-01-21T10:17:33.444Z,-2.00
2019-01-21T10:20:43.919Z,-1.90
2019-01-21T10:24:13.077Z,-1.90
2019-01-21T10:27:26.651Z,-1.80
2019-01-21T10:30:56.889Z,-1.90
2019-01-21T10:34:23.783Z,-1.80
2019-01-21T10:37:42.270Z,-1.90
2019-01-21T10:41:19.876Z,-1.80
2019-01-21T10:44:57.656Z,-1.80
2019-01-21T10:47:58.128Z,-1.70
2019-01-21T10:51:03.324Z,-1.70
2019-01-21T10:53:58.237Z,-1.60
2019-01-21T10:57:24.395Z,-1.50
2019-01-21T11:00:35.010Z,-1.50
2019-01-21T11:03:48.937Z,-1.50
2019-01-21T11:06:45.008Z,-1.50
2019-01-21T11:10:08.272Z,-1.60
2019-01-21T11:13:55.621Z,-1.60
2019-01-21T11:17:17.488Z,-1.50
2019-01-21T11:20:55.703Z,-1.40
2019-01-21T11:24:22.280Z,-1.40
2019-01-21T11:28:00.327Z,-1.30
2019-01-21T11:31:35.405Z,-1.20
2019-01-21T11:34:55.237Z,-1.10
2019-01-21T11:38:45.801Z,-1.10
2019-01-21T11:42:28.985Z,-1.10
2019-01-21T11:46:03.384Z,-1.10
2019-01-21T11:49:17.457Z,-1.10
2019-01-21T11:52:28.888Z,-1.00
2019-01-21T11:55:50.107Z,-1.00
2019-01-21T11:59:06.256Z,-0.90
2019-01-21T12:02:40.491Z,-0.80
2019-01-21T12:05:44.819Z,-0.70
2019-01-21T12:09:19.985Z,-0.60
2019-01-21T12:12:33.627Z,-0.60
2019-01-21T12:15:49.070Z,-0.60
2019-01-21T12:18:51.721Z,-0.50
2019-01-21T12:22:17.022Z,-0.50
2019-01-21T12:25:01.049Z,-0.40
2019-01-21T12:28:17.119Z,-0.40
2019-01-21T12:31:36.787Z,-0.30
2019-01-21T12:34:57.358Z,-0.20
2019-01-21T12:37:50.944Z,-0.20
2019-01-21T12:41:56.705Z,-0.20
2019-01-21T12:45:26.721Z,-0.10
2019-01-21T12:48:41.105Z,-0.10
2019-01-21T12:52:00.150Z,-0.10
2019-01-21T12:55:38.075Z,-0.10
2019-01-21T12:58:43.388Z,-0.10
2019-01-21T13:01:46.379Z,0.00
2019-01-21T13:04:41.746Z,0.00
2019-01-21T13:07:50.889Z,0.10
2019-01-21T13:10:57.420Z,0.20
2019-01-21T13:14:13.247Z,0.30
2019-01-21T13:17:22.750Z,0.30
2019-01-21T13:20:49.591Z,0.30
2019-01-21T13:24:37.945Z,0.30
2019-01-21T13:27:47.355Z,0.40
2019-01-21T13:30:39.885Z,0.40
2019-01-21T13:33:33.541Z,0.50
2019-01-21T13:36:52.675Z,0.60
2019-01-21T13:40:17.674Z,0.60
2019-01-21T13:43:18.431Z,0.70
2019-01-21T13:46:53.900Z,0.60
2019-01-21T13:49:46.388Z,0.60
2019-01-21T13:52:39.931Z,0.70
2019-01-21T13:55:45.102Z,0.70
2019-01-21T13:58:51.698Z,0.70
2019-01-21T14:02:02.827Z,0.60
2019-01-21T14:05:30.975Z,0.80
2019-01-21T14:08:41.422Z,0.50
2019-01-21T14:11:44.911Z,0.80
2019-01-21T14:15:23.556Z,0.60
2019-01-21T14:18:54.802Z,0.50
2019-01-21T14:22:22.765Z,0.40
2019-01-21T14:25:42.307Z,0.30
2019-01-21T14:29:28.613Z,0.30
2019-01-21T14:32:38.226Z,0.20
2019-01-21T14:36:03.073Z,0.20
2019-01-21T14:39:32.121Z,0.10
2019-01-21T14:42:51.867Z,0.10
2019-01-21T14:46:33.490Z,0.10
2019-01-21T14:49:59.894Z,0.00
2019-01-21T14:53:37.473Z,-0.10
2019-01-21T14:57:11.819Z,-0.10
2019-01-21T15:00:39.913Z,-0.10
2019-01-21T15:03:55.499Z,-0.10
2019-01-21T15:07:02.325Z,-0.10
2019-01-21T15:10:28.796Z,0.00
2019-01-21T15:14:07.182Z,0.00
2019-01-21T15:17:15.228Z,0.00
2019-01-21T15:20:17.638Z,0.00
2019-01-21T15:24:00.091Z,0.00
2019-01-21T15:27:29.517Z,0.10
2019-01-21T15:31:19.461Z,0.00
2019-01-21T15:34:25.012Z,0.00
2019-01-21T15:37:44.298Z,0.00
2019-01-21T15:41:08.156Z,0.00
2019-01-21T15:44:11.254Z,0.00
2019-01-21T15:47:14.266Z,-0.10
2019-01-21T15:50:21.215Z,-0.10
2019-01-21T15:53:38.618Z,0.00
2019-01-21T15:56:58.884Z,0.00
2019-01-21T16:00:17.016Z,0.10
2019-01-21T16:03:25.559Z,0.00
2019-01-21T16:07:10.789Z,0.00
2019-01-21T16:10:28.538Z,-0.10
2019-01-21T16:13:40.997Z,-0.10
2019-01-21T16:17:06.192Z,-0.10
2019-01-21T16:20:21.095Z,-0.10
2019-01-21T16:24:00.303Z,-0.10
2019-01-21T16:27:14.359Z,-0.20
2019-01-21T16:30:04.709Z,-0.20
2019-01-21T16:33:11.183Z,-0.20
2019-01-21T16:36:16.228Z,-0.20
2019-01-21T16:39:19.150Z,-0.20
2019-01-21T16:42:19.064Z,-0.20
2019-01-21T16:44:47.907Z,-0.20
2019-01-21T16:47:16.059Z,-0.10
2019-01-21T16:49:44.235Z,-0.10
2019-01-21T16:52:12.301Z,-0.10
2019-01-21T16:54:41.465Z,0.00
2019-01-21T16:57:09.723Z,0.00
2019-01-21T16:59:37.903Z,0.00
2019-01-21T17:02:06.067Z,0.10
2019-01-21T17:04:34.120Z,0.20
2019-01-21T17:07:02.287Z,0.20
2019-01-21T17:09:30.571Z,0.20
2019-01-21T17:11:58.682Z,0.20
2019-01-21T17:14:26.858Z,0.20
2019-01-21T17:16:55.019Z,0.30
2019-01-21T17:19:23.080Z,0.30
2019-01-21T17:21:51.264Z,0.30
2019-01-21T17:24:19.455Z,0.40
2019-01-21T17:26:47.888Z,0.40
2019-01-21T17:29:16.186Z,0.40
2019-01-21T17:31:44.303Z,0.50
2019-01-21T17:34:12.377Z,0.40
2019-01-21T17:36:40.498Z,0.50
2019-01-21T17:39:09.403Z,0.50
2019-01-21T17:41:37.483Z,0.60
2019-01-21T17:44:06.166Z,0.60
2019-01-21T17:46:34.389Z,0.50
2019-01-21T17:49:02.772Z,0.60
2019-01-21T17:51:34.314Z,0.60
2019-01-21T17:54:00.951Z,0.60
2019-01-21T17:56:29.054Z,0.70
2019-01-21T17:58:57.120Z,0.70
2019-01-21T18:01:26.569Z,0.70
2019-01-21T18:03:54.600Z,0.70
2019-01-21T18:06:22.681Z,0.70
2019-01-21T18:08:50.821Z,0.70
2019-01-21T18:11:18.909Z,0.80
2019-01-21T18:13:47.013Z,0.80
2019-01-21T18:16:15.244Z,0.80
2019-01-21T18:18:43.392Z,0.80
2019-01-21T18:21:11.471Z,0.80
2019-01-21T18:23:39.545Z,0.80
2019-01-21T18:26:08.247Z,0.80
2019-01-21T18:28:36.490Z,0.80
2019-01-21T18:31:04.683Z,0.80
2019-01-21T18:33:33.468Z,0.90
2019-01-21T18:36:01.871Z,0.90
2019-01-21T18:38:31.280Z,0.90
2019-01-21T18:41:00.619Z,0.90
2019-01-21T18:43:30.924Z,0.80
2019-01-21T18:46:00.467Z,0.80
2019-01-21T18:48:29.917Z,0.80
2019-01-21T18:50:58.559Z,0.80
2019-01-21T18:53:26.884Z,0.80
2019-01-21T18:55:56.888Z,0.90
2019-01-21T18:58:26.206Z,0.90
2019-01-21T19:00:55.671Z,0.90
2019-01-21T19:03:24.815Z,0.90
2019-01-21T19:05:53.236Z,0.90
2019-01-21T19:08:21.377Z,0.80
2019-01-21T19:10:49.569Z,0.80
2019-01-21T19:13:17.640Z,0.90
2019-01-21T19:18:24.468Z,0.90
2019-01-21T19:20:52.639Z,0.90
2019-01-21T19:23:20.852Z,0.90
2019-01-21T19:25:48.888Z,0.80
2019-01-21T19:28:17.103Z,0.80
2019-01-21T19:30:45.194Z,0.90
2019-01-21T19:33:13.368Z,0.90
2019-01-21T19:35:42.488Z,0.80
2019-01-21T19:38:10.695Z,0.80
2019-01-21T19:40:38.820Z,0.80
2019-01-21T19:43:08.109Z,0.70
2019-01-21T19:45:36.230Z,0.70
2019-01-21T19:48:05.232Z,0.60
2019-01-21T19:50:33.362Z,0.60
2019-01-21T19:53:01.577Z,0.50
2019-01-21T19:55:37.515Z,0.50
2019-01-21T19:58:07.347Z,0.40
2019-01-21T20:00:35.774Z,0.40
2019-01-21T20:03:04.482Z,0.30
2019-01-21T20:05:32.728Z,0.40
2019-01-21T20:08:00.857Z,0.30
2019-01-21T20:10:28.987Z,0.30
2019-01-21T20:12:57.136Z,0.30
2019-01-21T20:15:25.599Z,0.20
2019-01-21T20:17:53.795Z,0.20
2019-01-21T20:20:29.132Z,0.20
2019-01-21T20:22:57.895Z,0.20
2019-01-21T20:25:26.102Z,0.20
2019-01-21T20:27:54.593Z,0.10
2019-01-21T20:30:23.230Z,0.10
2019-01-21T20:32:51.433Z,0.00
2019-01-21T20:35:19.551Z,0.00
2019-01-21T20:37:47.675Z,0.00
2019-01-21T20:40:20.114Z,0.00
2019-01-21T20:42:48.577Z,0.00
2019-01-21T20:45:17.233Z,0.00
2019-01-21T20:47:45.357Z,0.10
2019-01-21T20:50:18.374Z,0.00
2019-01-21T20:52:46.418Z,0.00
2019-01-21T20:55:15.584Z,0.00
2019-01-21T20:57:43.814Z,0.00
2019-01-21T21:00:16.781Z,-0.10
2019-01-21T21:02:44.995Z,-0.10
2019-01-21T21:05:13.437Z,-0.10
2019-01-21T21:07:41.920Z,-0.10
2019-01-21T21:10:10.668Z,-0.10
2019-01-21T21:12:38.795Z,-0.10
2019-01-21T21:15:11.991Z,-0.10
2019-01-21T21:17:40.245Z,-0.10
2019-01-21T21:20:10.445Z,-0.10
2019-01-21T21:22:38.595Z,0.00
2019-01-21T21:25:09.619Z,0.00
2019-01-21T21:27:37.940Z,0.00
2019-01-21T21:30:20.995Z,0.00
2019-01-21T21:32:49.408Z,0.00
2019-01-21T21:35:17.723Z,0.00
2019-01-21T21:37:45.916Z,0.10
2019-01-21T21:40:16.758Z,0.10
2019-01-21T21:42:45.332Z,0.10
2019-01-21T21:45:16.080Z,0.10
2019-01-21T21:47:44.415Z,0.10
2019-01-21T21:50:17.059Z,0.20
2019-01-21T21:52:45.282Z,0.20
2019-01-21T21:55:13.780Z,0.20
2019-01-21T21:57:41.908Z,0.20
2019-01-21T22:00:15.535Z,0.20
2019-01-21T22:02:44.175Z,0.20
2019-01-21T22:05:12.893Z,0.20
2019-01-21T22:07:42.088Z,0.20
2019-01-21T22:10:19.605Z,0.20
2019-01-21T22:12:45.238Z,0.60
2019-01-21T22:15:17.454Z,0.40
2019-01-21T22:17:46.246Z,0.60
2019-01-21T22:20:22.497Z,0.80
2019-01-21T22:22:50.730Z,1.00
2019-01-21T22:25:19.198Z,1.00
2019-01-21T22:27:47.499Z,1.10
2019-01-21T22:30:20.028Z,1.20
2019-01-21T22:32:48.275Z,1.40
2019-01-21T22:35:16.477Z,1.50
2019-01-21T22:37:45.143Z,1.50
2019-01-21T22:40:16.798Z,1.40
2019-01-21T22:42:45.100Z,1.10
2019-01-21T22:45:15.615Z,1.10
2019-01-21T22:47:43.791Z,1.00
2019-01-21T22:50:13.727Z,1.00
2019-01-21T22:52:42.225Z,0.90
2019-01-21T22:55:12.310Z,0.80
2019-01-21T22:57:40.619Z,0.80
2019-01-21T23:01:05.388Z,0.80
2019-01-21T23:03:33.453Z,0.80
2019-01-21T23:06:01.736Z,0.80
2019-01-21T23:08:29.984Z,0.80
2019-01-21T23:10:58.077Z,0.70
2019-01-21T23:13:26.120Z,0.80
2019-01-21T23:15:54.156Z,0.80
2019-01-21T23:18:22.272Z,0.80
2019-01-21T23:20:51.017Z,0.80
2019-01-21T23:23:19.059Z,0.80
2019-01-21T23:25:47.122Z,0.80
2019-01-21T23:28:15.304Z,0.80
2019-01-21T23:30:43.731Z,0.80
2019-01-21T23:33:11.806Z,0.80
2019-01-21T23:35:39.927Z,0.80
2019-01-21T23:38:08.387Z,0.90
2019-01-21T23:40:36.544Z,0.90
2019-01-21T23:43:04.889Z,0.80
2019-01-21T23:45:33.294Z,0.80
2019-01-21T23:48:01.330Z,0.70
2019-01-21T23:50:29.633Z,0.70
2019-01-21T23:52:57.686Z,0.70
2019-01-21T23:55:25.937Z,0.70
2019-01-21T23:57:53.992Z,0.70
